sensor_id;sensor_type;location;lat;lon;timestamp;temperature;humidity
36690;DHT22;22676;51.120;3.702;2022-12-31T00:00:57;22.80;51.10
36690;DHT22;22676;51.120;3.702;2022-12-31T00:03:23;22.80;51.10
36690;DHT22;22676;51.120;3.702;2022-12-31T00:05:48;22.70;51.10
36690;DHT22;22676;51.120;3.702;2022-12-31T00:08:14;22.60;51.30
36690;DHT22;22676;51.120;3.702;2022-12-31T00:10:39;22.60;51.40
36690;DHT22;22676;51.120;3.702;2022-12-31T00:13:08;22.70;51.10
36690;DHT22;22676;51.120;3.702;2022-12-31T00:15:34;22.70;51.00
36690;DHT22;22676;51.120;3.702;2022-12-31T00:18:00;22.70;50.80
36690;DHT22;22676;51.120;3.702;2022-12-31T00:20:25;22.70;50.90
36690;DHT22;22676;51.120;3.702;2022-12-31T00:22:51;22.70;50.90
36690;DHT22;22676;51.120;3.702;2022-12-31T00:25:16;22.70;50.90
36690;DHT22;22676;51.120;3.702;2022-12-31T00:27:42;22.70;50.90
36690;DHT22;22676;51.120;3.702;2022-12-31T00:30:07;22.70;50.80
36690;DHT22;22676;51.120;3.702;2022-12-31T00:32:33;22.70;50.90
36690;DHT22;22676;51.120;3.702;2022-12-31T00:34:59;22.70;50.70
36690;DHT22;22676;51.120;3.702;2022-12-31T00:37:24;22.70;50.80
36690;DHT22;22676;51.120;3.702;2022-12-31T00:39:50;22.70;50.70
36690;DHT22;22676;51.120;3.702;2022-12-31T00:42:15;22.70;50.60
36690;DHT22;22676;51.120;3.702;2022-12-31T00:44:41;22.80;50.60
36690;DHT22;22676;51.120;3.702;2022-12-31T00:47:06;22.80;50.50
36690;DHT22;22676;51.120;3.702;2022-12-31T00:49:32;22.80;50.40
36690;DHT22;22676;51.120;3.702;2022-12-31T00:51:57;22.80;50.50
36690;DHT22;22676;51.120;3.702;2022-12-31T00:54:23;22.80;50.40
36690;DHT22;22676;51.120;3.702;2022-12-31T00:56:48;22.80;50.30
36690;DHT22;22676;51.120;3.702;2022-12-31T00:59:14;22.80;50.30
36690;DHT22;22676;51.120;3.702;2022-12-31T01:01:40;22.80;50.30
36690;DHT22;22676;51.120;3.702;2022-12-31T01:04:07;22.80;50.40
36690;DHT22;22676;51.120;3.702;2022-12-31T01:06:33;22.70;50.50
36690;DHT22;22676;51.120;3.702;2022-12-31T01:08:58;22.60;50.80
36690;DHT22;22676;51.120;3.702;2022-12-31T01:11:24;22.50;51.10
36690;DHT22;22676;51.120;3.702;2022-12-31T01:14:04;22.60;50.90
36690;DHT22;22676;51.120;3.702;2022-12-31T01:16:33;22.60;50.50
36690;DHT22;22676;51.120;3.702;2022-12-31T01:19:00;22.60;50.50
36690;DHT22;22676;51.120;3.702;2022-12-31T01:21:26;22.60;50.40
36690;DHT22;22676;51.120;3.702;2022-12-31T01:23:52;22.70;50.90
36690;DHT22;22676;51.120;3.702;2022-12-31T01:26:18;22.70;50.40
36690;DHT22;22676;51.120;3.702;2022-12-31T01:28:44;22.70;50.40
36690;DHT22;22676;51.120;3.702;2022-12-31T01:31:11;22.70;50.40
36690;DHT22;22676;51.120;3.702;2022-12-31T01:33:37;22.70;50.30
36690;DHT22;22676;51.120;3.702;2022-12-31T01:36:07;22.60;50.30
36690;DHT22;22676;51.120;3.702;2022-12-31T01:38:34;22.60;50.50
36690;DHT22;22676;51.120;3.702;2022-12-31T01:41:00;22.60;50.40
36690;DHT22;22676;51.120;3.702;2022-12-31T01:43:42;22.60;50.50
36690;DHT22;22676;51.120;3.702;2022-12-31T01:46:09;22.60;50.50
36690;DHT22;22676;51.120;3.702;2022-12-31T01:48:36;22.60;50.60
36690;DHT22;22676;51.120;3.702;2022-12-31T01:51:02;22.60;50.40
36690;DHT22;22676;51.120;3.702;2022-12-31T01:53:28;22.50;50.50
36690;DHT22;22676;51.120;3.702;2022-12-31T01:55:56;22.50;50.50
36690;DHT22;22676;51.120;3.702;2022-12-31T01:58:23;22.50;50.60
36690;DHT22;22676;51.120;3.702;2022-12-31T02:00:50;22.50;50.60
36690;DHT22;22676;51.120;3.702;2022-12-31T02:03:16;22.50;50.50
36690;DHT22;22676;51.120;3.702;2022-12-31T02:05:44;22.50;50.40
36690;DHT22;22676;51.120;3.702;2022-12-31T02:08:11;22.40;50.90
36690;DHT22;22676;51.120;3.702;2022-12-31T02:10:36;22.30;51.10
36690;DHT22;22676;51.120;3.702;2022-12-31T02:13:02;22.30;50.80
36690;DHT22;22676;51.120;3.702;2022-12-31T02:15:30;22.40;50.60
36690;DHT22;22676;51.120;3.702;2022-12-31T02:23:09;22.50;50.30
36690;DHT22;22676;51.120;3.702;2022-12-31T02:28:27;22.50;50.30
36690;DHT22;22676;51.120;3.702;2022-12-31T02:31:08;22.50;50.40
36690;DHT22;22676;51.120;3.702;2022-12-31T02:33:40;22.50;50.30
36690;DHT22;22676;51.120;3.702;2022-12-31T02:36:10;22.50;50.40
36690;DHT22;22676;51.120;3.702;2022-12-31T02:38:41;22.50;50.20
36690;DHT22;22676;51.120;3.702;2022-12-31T02:41:11;22.50;50.30
36690;DHT22;22676;51.120;3.702;2022-12-31T02:43:44;22.50;50.20
36690;DHT22;22676;51.120;3.702;2022-12-31T02:46:16;22.50;50.20
36690;DHT22;22676;51.120;3.702;2022-12-31T02:48:46;22.50;50.20
36690;DHT22;22676;51.120;3.702;2022-12-31T03:01:31;22.40;50.30
36690;DHT22;22676;51.120;3.702;2022-12-31T03:04:16;22.40;50.30
36690;DHT22;22676;51.120;3.702;2022-12-31T03:09:26;22.20;51.10
36690;DHT22;22676;51.120;3.702;2022-12-31T03:11:51;22.20;51.30
36690;DHT22;22676;51.120;3.702;2022-12-31T03:14:36;22.20;50.90
36690;DHT22;22676;51.120;3.702;2022-12-31T03:17:01;22.30;50.70
36690;DHT22;22676;51.120;3.702;2022-12-31T03:19:27;22.30;50.60
36690;DHT22;22676;51.120;3.702;2022-12-31T03:22:11;22.40;50.40
36690;DHT22;22676;51.120;3.702;2022-12-31T03:24:52;22.40;50.40
36690;DHT22;22676;51.120;3.702;2022-12-31T03:27:37;22.40;50.30
36690;DHT22;22676;51.120;3.702;2022-12-31T03:30:03;22.40;50.30
36690;DHT22;22676;51.120;3.702;2022-12-31T03:32:28;22.50;50.20
36690;DHT22;22676;51.120;3.702;2022-12-31T03:34:54;22.40;50.10
36690;DHT22;22676;51.120;3.702;2022-12-31T03:37:20;22.50;50.30
36690;DHT22;22676;51.120;3.702;2022-12-31T03:39:46;22.40;50.30
36690;DHT22;22676;51.120;3.702;2022-12-31T03:42:11;22.40;50.50
36690;DHT22;22676;51.120;3.702;2022-12-31T03:44:37;22.40;50.50
36690;DHT22;22676;51.120;3.702;2022-12-31T03:47:02;22.40;50.40
36690;DHT22;22676;51.120;3.702;2022-12-31T03:49:28;22.40;50.60
36690;DHT22;22676;51.120;3.702;2022-12-31T03:51:53;22.40;50.40
36690;DHT22;22676;51.120;3.702;2022-12-31T03:54:19;22.40;50.70
36690;DHT22;22676;51.120;3.702;2022-12-31T03:56:44;22.40;50.60
36690;DHT22;22676;51.120;3.702;2022-12-31T03:59:10;22.40;50.70
36690;DHT22;22676;51.120;3.702;2022-12-31T04:01:36;22.30;50.70
36690;DHT22;22676;51.120;3.702;2022-12-31T04:04:01;22.30;50.80
36690;DHT22;22676;51.120;3.702;2022-12-31T04:06:27;22.20;51.40
36690;DHT22;22676;51.120;3.702;2022-12-31T04:08:52;22.10;51.80
36690;DHT22;22676;51.120;3.702;2022-12-31T04:11:18;22.10;51.70
36690;DHT22;22676;51.120;3.702;2022-12-31T04:13:43;22.10;51.40
36690;DHT22;22676;51.120;3.702;2022-12-31T04:16:09;22.20;51.10
36690;DHT22;22676;51.120;3.702;2022-12-31T04:18:34;22.20;51.20
36690;DHT22;22676;51.120;3.702;2022-12-31T04:21:01;22.20;51.00
36690;DHT22;22676;51.120;3.702;2022-12-31T04:23:26;22.20;51.00
36690;DHT22;22676;51.120;3.702;2022-12-31T04:25:52;22.20;50.90
36690;DHT22;22676;51.120;3.702;2022-12-31T04:28:18;22.30;51.00
36690;DHT22;22676;51.120;3.702;2022-12-31T04:30:43;22.30;51.00
36690;DHT22;22676;51.120;3.702;2022-12-31T04:33:09;22.30;50.90
36690;DHT22;22676;51.120;3.702;2022-12-31T04:35:34;22.30;50.70
36690;DHT22;22676;51.120;3.702;2022-12-31T04:38:00;22.30;50.70
36690;DHT22;22676;51.120;3.702;2022-12-31T04:40:25;22.30;50.60
36690;DHT22;22676;51.120;3.702;2022-12-31T04:42:51;22.40;50.60
36690;DHT22;22676;51.120;3.702;2022-12-31T04:45:16;22.40;50.50
36690;DHT22;22676;51.120;3.702;2022-12-31T04:47:42;22.40;50.40
36690;DHT22;22676;51.120;3.702;2022-12-31T04:50:07;22.40;50.40
36690;DHT22;22676;51.120;3.702;2022-12-31T04:52:33;22.40;50.50
36690;DHT22;22676;51.120;3.702;2022-12-31T04:54:59;22.40;50.70
36690;DHT22;22676;51.120;3.702;2022-12-31T04:57:24;22.40;50.70
36690;DHT22;22676;51.120;3.702;2022-12-31T04:59:50;22.40;50.50
36690;DHT22;22676;51.120;3.702;2022-12-31T05:02:15;22.40;50.40
36690;DHT22;22676;51.120;3.702;2022-12-31T05:04:41;22.40;50.70
36690;DHT22;22676;51.120;3.702;2022-12-31T05:07:06;22.30;51.40
36690;DHT22;22676;51.120;3.702;2022-12-31T05:09:32;22.10;51.60
36690;DHT22;22676;51.120;3.702;2022-12-31T05:11:57;22.10;52.00
36690;DHT22;22676;51.120;3.702;2022-12-31T05:14:23;22.20;51.10
36690;DHT22;22676;51.120;3.702;2022-12-31T05:16:48;22.20;51.00
36690;DHT22;22676;51.120;3.702;2022-12-31T05:19:14;22.30;51.00
36690;DHT22;22676;51.120;3.702;2022-12-31T05:21:40;22.30;50.80
36690;DHT22;22676;51.120;3.702;2022-12-31T05:24:06;22.40;50.50
36690;DHT22;22676;51.120;3.702;2022-12-31T05:26:31;22.40;50.60
36690;DHT22;22676;51.120;3.702;2022-12-31T05:28:57;22.30;51.10
36690;DHT22;22676;51.120;3.702;2022-12-31T05:31:25;22.30;50.60
36690;DHT22;22676;51.120;3.702;2022-12-31T05:33:51;22.30;50.80
36690;DHT22;22676;51.120;3.702;2022-12-31T05:36:17;22.30;50.70
36690;DHT22;22676;51.120;3.702;2022-12-31T05:38:42;22.30;50.80
36690;DHT22;22676;51.120;3.702;2022-12-31T05:41:09;22.30;50.80
36690;DHT22;22676;51.120;3.702;2022-12-31T05:43:34;22.30;50.70
36690;DHT22;22676;51.120;3.702;2022-12-31T05:46:00;22.30;50.70
36690;DHT22;22676;51.120;3.702;2022-12-31T05:48:26;22.30;50.60
36690;DHT22;22676;51.120;3.702;2022-12-31T05:50:52;22.30;50.50
36690;DHT22;22676;51.120;3.702;2022-12-31T05:53:18;22.30;50.60
36690;DHT22;22676;51.120;3.702;2022-12-31T05:55:44;22.30;50.60
36690;DHT22;22676;51.120;3.702;2022-12-31T05:58:10;22.30;50.70
36690;DHT22;22676;51.120;3.702;2022-12-31T06:00:35;22.30;50.70
36690;DHT22;22676;51.120;3.702;2022-12-31T06:03:00;22.40;50.40
36690;DHT22;22676;51.120;3.702;2022-12-31T06:05:26;22.30;50.80
36690;DHT22;22676;51.120;3.702;2022-12-31T06:07:52;22.30;51.20
36690;DHT22;22676;51.120;3.702;2022-12-31T06:10:17;22.50;51.10
36690;DHT22;22676;51.120;3.702;2022-12-31T06:12:43;22.70;50.40
36690;DHT22;22676;51.120;3.702;2022-12-31T06:15:09;22.80;50.00
36690;DHT22;22676;51.120;3.702;2022-12-31T06:17:34;22.90;49.70
36690;DHT22;22676;51.120;3.702;2022-12-31T06:20:00;23.00;50.00
36690;DHT22;22676;51.120;3.702;2022-12-31T06:22:25;23.00;49.30
36690;DHT22;22676;51.120;3.702;2022-12-31T06:24:51;23.10;49.10
36690;DHT22;22676;51.120;3.702;2022-12-31T06:27:16;23.10;49.00
36690;DHT22;22676;51.120;3.702;2022-12-31T06:29:42;23.20;48.80
36690;DHT22;22676;51.120;3.702;2022-12-31T06:32:08;23.30;48.80
36690;DHT22;22676;51.120;3.702;2022-12-31T06:34:34;23.30;48.70
36690;DHT22;22676;51.120;3.702;2022-12-31T06:36:59;23.40;48.70
36690;DHT22;22676;51.120;3.702;2022-12-31T06:39:26;23.40;48.60
36690;DHT22;22676;51.120;3.702;2022-12-31T06:41:52;23.50;48.60
36690;DHT22;22676;51.120;3.702;2022-12-31T06:44:17;23.50;48.60
36690;DHT22;22676;51.120;3.702;2022-12-31T06:46:43;23.60;48.40
36690;DHT22;22676;51.120;3.702;2022-12-31T06:49:08;23.60;48.30
36690;DHT22;22676;51.120;3.702;2022-12-31T06:51:34;23.70;48.10
36690;DHT22;22676;51.120;3.702;2022-12-31T06:53:59;23.80;48.10
36690;DHT22;22676;51.120;3.702;2022-12-31T06:56:26;23.80;48.10
36690;DHT22;22676;51.120;3.702;2022-12-31T06:58:53;23.90;48.00
